Time;durP1;ratioP1;P1;durP2;ratioP2;P2;SDS_P1;SDS_P2;PMS_P1;PMS_P2;Temp;Humidity;BMP_temperature;BMP_pressure;BME280_temperature;BME280_humidity;BME280_pressure;Samples;Min_cycle;Max_cycle;Signal;HPM_P1;HPM_P2
2023/04/12 00:01:10;;;;;;;;;;;;;;;8.18;95.84;100588.47;5050611;28;19920;-54
2023/04/12 00:03:36;;;;;;;;;;;;;;;8.14;97.65;100583.22;5047933;28;19928;-54
2023/04/12 00:06:06;;;;;;;;;;;;;;;8.12;98.53;100572.03;5049736;28;20598;-53
2023/04/12 00:08:34;;;;;;;;;;;;;;;8.09;97.87;100571.94;5042007;28;20426;-54
2023/04/12 00:11:00;;;;;;;;;;;;;;;8.09;98.55;100564.25;5053645;28;19923;-53
2023/04/12 00:13:25;;;;;;;;;;;;;;;8.07;100.00;100562.53;5045679;28;19912;-52
2023/04/12 00:15:50;;;;;;;;;;;;;;;8.07;99.62;100552.28;5050300;28;19962;-54
2023/04/12 00:18:15;;;;;;;;;;;;;;;8.06;99.42;100552.19;5054059;28;20395;-52
2023/04/12 00:20:41;;;;;;;;;;;;;;;7.99;100.00;100547.69;5052376;28;20291;-53
2023/04/12 00:23:08;;;;;;;;;;;;;;;7.94;96.89;100536.44;5055741;28;19995;-54
2023/04/12 00:25:34;;;;;;;;;;;;;;;7.90;100.00;100517.56;5051683;28;19989;-53
2023/04/12 00:27:59;;;;;;;;;;;;;;;7.83;99.91;100518.19;5053605;28;20360;-53
2023/04/12 00:30:24;;;;;;;;;;;;;;;7.93;100.00;100506.53;5050945;28;19916;-53
2023/04/12 00:32:50;;;;;;;;;;;;;;;7.77;99.78;100500.06;5054392;28;19919;-54
2023/04/12 00:35:15;;;;;;;;;;;;;;;7.79;100.00;100488.16;5050836;28;19923;-56
2023/04/12 00:37:40;;;;;;;;;;;;;;;7.76;100.00;100485.50;5049872;28;19920;-56
2023/04/12 00:40:07;;;;;;;;;;;;;;;7.71;99.76;100484.50;5055743;28;20358;-57
2023/04/12 00:42:32;;;;;;;;;;;;;;;7.75;100.00;100468.41;5051664;28;19931;-56
2023/04/12 00:44:57;;;;;;;;;;;;;;;7.82;100.00;100465.22;5054982;28;20282;-55
2023/04/12 00:47:23;;;;;;;;;;;;;;;7.72;100.00;100455.53;5046492;28;20011;-57
2023/04/12 00:49:48;;;;;;;;;;;;;;;7.70;100.00;100452.88;5050124;28;19963;-56
2023/04/12 00:52:14;;;;;;;;;;;;;;;7.70;100.00;100446.91;5050620;28;19923;-56
2023/04/12 00:54:40;;;;;;;;;;;;;;;7.66;100.00;100440.84;5050894;28;19917;-57
2023/04/12 00:57:06;;;;;;;;;;;;;;;7.78;100.00;100445.47;5050665;28;20307;-55
2023/04/12 00:59:31;;;;;;;;;;;;;;;7.66;100.00;100428.03;5049110;28;19935;-55
2023/04/12 01:01:56;;;;;;;;;;;;;;;7.74;100.00;100418.91;5053970;28;19916;-55
2023/04/12 01:04:25;;;;;;;;;;;;;;;7.71;100.00;100408.59;5052650;28;19913;-55
2023/04/12 01:06:54;;;;;;;;;;;;;;;7.72;100.00;100406.91;5056695;28;19931;-54
2023/04/12 01:09:30;;;;;;;;;;;;;;;7.68;100.00;100395.69;5055485;28;20012;-54
2023/04/12 01:11:58;;;;;;;;;;;;;;;7.67;100.00;100377.72;5055633;28;19913;-56
2023/04/12 01:14:35;;;;;;;;;;;;;;;7.65;100.00;100377.69;5056691;28;19962;-55
2023/04/12 01:17:06;;;;;;;;;;;;;;;7.64;100.00;100359.69;5060332;28;19917;-54
2023/04/12 01:19:33;;;;;;;;;;;;;;;7.63;100.00;100358.84;5064098;28;20006;-54
2023/04/12 01:22:17;;;;;;;;;;;;;;;7.68;100.00;100343.63;5054844;28;19924;-55
2023/04/12 01:24:54;;;;;;;;;;;;;;;7.68;100.00;100341.06;5056697;28;20376;-55
2023/04/12 01:27:40;;;;;;;;;;;;;;;7.71;100.00;100331.81;5055454;28;19939;-55
2023/04/12 01:30:07;;;;;;;;;;;;;;;7.72;100.00;100330.13;5056986;28;19948;-51
2023/04/12 01:32:33;;;;;;;;;;;;;;;7.64;100.00;100318.75;5053835;28;19916;-54
2023/04/12 01:35:01;;;;;;;;;;;;;;;7.65;100.00;100318.84;5054584;28;19921;-53
2023/04/12 01:37:27;;;;;;;;;;;;;;;7.63;100.00;100314.47;5052802;28;20345;-55
2023/04/12 01:39:52;;;;;;;;;;;;;;;7.62;100.00;100305.94;5052442;28;20011;-55
2023/04/12 01:42:21;;;;;;;;;;;;;;;7.64;100.00;100285.50;5054506;28;20015;-55
2023/04/12 01:44:46;;;;;;;;;;;;;;;7.62;100.00;100279.47;5051653;28;19917;-54
2023/04/12 01:47:11;;;;;;;;;;;;;;;7.60;100.00;100288.81;5052615;28;19947;-54
2023/04/12 01:49:44;;;;;;;;;;;;;;;7.66;100.00;100276.19;5052690;28;19923;-54
2023/04/12 01:52:12;;;;;;;;;;;;;;;7.66;100.00;100271.94;5051837;28;20011;-54
2023/04/12 01:54:40;;;;;;;;;;;;;;;7.59;100.00;100267.47;5053689;28;20356;-54
2023/04/12 01:57:07;;;;;;;;;;;;;;;7.63;100.00;100258.16;5049427;28;19928;-54
2023/04/12 01:59:39;;;;;;;;;;;;;;;7.61;100.00;100252.16;5049990;28;20321;-50
2023/04/12 02:02:05;;;;;;;;;;;;;;;7.61;100.00;100249.59;5051398;28;20375;-55
2023/04/12 02:04:31;;;;;;;;;;;;;;;7.58;100.00;100239.25;5054492;28;19912;-54
2023/04/12 02:06:56;;;;;;;;;;;;;;;7.57;100.00;100234.97;5057579;28;19923;-55
2023/04/12 02:09:21;;;;;;;;;;;;;;;7.56;100.00;100220.44;5046601;28;19925;-55
2023/04/12 02:11:47;;;;;;;;;;;;;;;7.58;100.00;100211.97;5052443;28;19952;-56
2023/04/12 02:14:13;;;;;;;;;;;;;;;7.59;100.00;100207.75;5054085;28;19913;-56
2023/04/12 02:16:38;;;;;;;;;;;;;;;7.55;100.00;100203.34;5053489;28;19971;-55
2023/04/12 02:19:07;;;;;;;;;;;;;;;7.56;100.00;100198.28;5057856;28;20356;-54
2023/04/12 02:21:38;;;;;;;;;;;;;;;7.56;100.00;100193.16;5056914;28;19999;-53
2023/04/12 02:24:03;;;;;;;;;;;;;;;7.58;100.00;100180.41;5054922;28;19975;-54
2023/04/12 02:26:28;;;;;;;;;;;;;;;7.56;100.00;100166.72;5052717;28;20938;-54
2023/04/12 02:28:54;;;;;;;;;;;;;;;7.59;100.00;100162.56;5054499;28;20005;-55
2023/04/12 02:31:19;;;;;;;;;;;;;;;7.60;100.00;100153.19;5047076;28;20539;-54
2023/04/12 02:33:44;;;;;;;;;;;;;;;7.59;100.00;100160.00;5051301;28;20287;-53
2023/04/12 02:36:10;;;;;;;;;;;;;;;7.53;100.00;100155.56;5051891;28;20359;-54
2023/04/12 02:38:35;;;;;;;;;;;;;;;7.54;100.00;100148.78;5051424;28;19919;-55
2023/04/12 02:41:00;;;;;;;;;;;;;;;7.58;100.00;100137.78;5052689;28;19952;-55
2023/04/12 02:43:26;;;;;;;;;;;;;;;7.55;100.00;100124.91;5057031;28;19929;-55
2023/04/12 02:45:51;;;;;;;;;;;;;;;7.53;100.00;100117.19;5049721;28;20341;-54
2023/04/12 02:48:16;;;;;;;;;;;;;;;7.52;100.00;100114.56;5051022;28;20004;-54
2023/04/12 02:50:41;;;;;;;;;;;;;;;7.56;100.00;100118.09;5055130;28;19960;-54
2023/04/12 02:53:07;;;;;;;;;;;;;;;7.48;100.00;100103.41;5044670;28;19916;-54
2023/04/12 02:55:32;;;;;;;;;;;;;;;7.48;100.00;100093.19;5052273;28;21228;-54
2023/04/12 02:57:57;;;;;;;;;;;;;;;7.51;100.00;100087.25;5051564;28;19913;-54
2023/04/12 03:00:23;;;;;;;;;;;;;;;7.48;100.00;100069.28;5053923;28;19919;-54
2023/04/12 03:02:50;;;;;;;;;;;;;;;7.52;100.00;100069.44;5046077;28;19917;-54
2023/04/12 03:05:16;;;;;;;;;;;;;;;7.46;100.00;100064.13;5056114;28;20387;-54
2023/04/12 03:07:41;;;;;;;;;;;;;;;7.45;100.00;100057.25;5049054;28;20367;-54
2023/04/12 03:10:07;;;;;;;;;;;;;;;7.45;100.00;100056.41;5050767;28;19916;-54
2023/04/12 03:12:32;;;;;;;;;;;;;;;7.47;100.00;100049.66;5054822;28;20263;-55
2023/04/12 03:14:58;;;;;;;;;;;;;;;7.51;100.00;100049.75;5054087;28;19923;-54
2023/04/12 03:17:23;;;;;;;;;;;;;;;7.54;100.00;100041.31;5053007;28;19932;-50
2023/04/12 03:19:48;;;;;;;;;;;;;;;7.48;100.00;100036.91;5050226;28;19923;-47
2023/04/12 03:22:13;;;;;;;;;;;;;;;7.46;100.00;100025.78;5040662;28;19999;-51
2023/04/12 03:24:41;;;;;;;;;;;;;;;7.45;100.00;100038.50;5036929;28;19920;-46
2023/04/12 03:27:07;;;;;;;;;;;;;;;7.52;100.00;100032.72;5056318;28;20003;-48
2023/04/12 03:29:32;;;;;;;;;;;;;;;7.41;100.00;100032.44;5052541;28;19999;-47
2023/04/12 03:31:58;;;;;;;;;;;;;;;7.38;100.00;100024.69;5052412;28;20053;-48
2023/04/12 03:34:24;;;;;;;;;;;;;;;7.41;100.00;100023.91;5054183;28;19919;-49
2023/04/12 03:36:50;;;;;;;;;;;;;;;7.37;100.00;100019.53;5049918;28;19913;-48
2023/04/12 03:39:15;;;;;;;;;;;;;;;7.38;100.00;100014.44;5055112;28;19925;-47
2023/04/12 03:41:40;;;;;;;;;;;;;;;7.34;100.00;100006.63;5056094;28;19913;-49
2023/04/12 03:44:06;;;;;;;;;;;;;;;7.33;100.00;99997.25;5054873;28;19963;-48
2023/04/12 03:46:31;;;;;;;;;;;;;;;7.34;100.00;99994.75;5060794;28;19999;-48
2023/04/12 03:48:57;;;;;;;;;;;;;;;7.34;100.00;99994.75;5054407;28;19939;-49
2023/04/12 03:51:25;;;;;;;;;;;;;;;7.32;100.00;99987.84;5060528;28;19917;-49
2023/04/12 03:53:51;;;;;;;;;;;;;;;7.28;100.00;99973.22;5062308;28;19931;-49
2023/04/12 03:56:16;;;;;;;;;;;;;;;7.27;100.00;99964.69;5046621;28;19913;-49
2023/04/12 03:58:41;;;;;;;;;;;;;;;7.24;100.00;99969.75;5059767;28;19939;-52
2023/04/12 04:01:08;;;;;;;;;;;;;;;7.25;100.00;99962.09;5046331;28;20587;-52
2023/04/12 04:03:33;;;;;;;;;;;;;;;7.40;100.00;99961.66;5056468;28;20362;-51
2023/04/12 04:06:02;;;;;;;;;;;;;;;7.24;100.00;99950.16;5056810;28;19944;-51
2023/04/12 04:08:27;;;;;;;;;;;;;;;7.22;100.00;99948.38;5051331;28;19967;-49
2023/04/12 04:10:53;;;;;;;;;;;;;;;7.21;100.00;99944.06;5050807;28;19943;-49
2023/04/12 04:13:18;;;;;;;;;;;;;;;7.22;100.00;99933.06;5050256;28;19944;-50
2023/04/12 04:15:43;;;;;;;;;;;;;;;7.20;100.00;99932.13;5058388;28;19917;-53
2023/04/12 04:18:09;;;;;;;;;;;;;;;7.19;100.00;99930.41;5053963;28;20394;-50
2023/04/12 04:20:34;;;;;;;;;;;;;;;7.21;100.00;99921.06;5050702;28;19956;-49
2023/04/12 04:22:59;;;;;;;;;;;;;;;7.24;100.00;99924.59;5049224;28;19921;-48
2023/04/12 04:25:28;;;;;;;;;;;;;;;7.19;100.00;99913.38;5056416;28;20291;-48
2023/04/12 04:27:54;;;;;;;;;;;;;;;7.18;100.00;99910.78;5063219;28;19916;-57
2023/04/12 04:30:21;;;;;;;;;;;;;;;7.16;100.00;99920.06;5056906;28;19932;-56
2023/04/12 04:32:47;;;;;;;;;;;;;;;7.20;100.00;99911.66;5059055;28;19924;-57
2023/04/12 04:35:14;;;;;;;;;;;;;;;7.13;100.00;99907.22;5056802;28;19991;-57
2023/04/12 04:37:40;;;;;;;;;;;;;;;7.16;100.00;99905.63;5044887;28;19924;-57
2023/04/12 04:40:10;;;;;;;;;;;;;;;7.24;100.00;99899.00;5039267;28;19921;-57
2023/04/12 04:42:37;;;;;;;;;;;;;;;7.18;100.00;99895.44;5043968;28;19927;-56
2023/04/12 04:45:04;;;;;;;;;;;;;;;7.13;100.00;99892.75;5054618;28;19959;-57
2023/04/12 04:47:29;;;;;;;;;;;;;;;7.13;100.00;99895.31;5056561;28;19987;-58
2023/04/12 04:49:58;;;;;;;;;;;;;;;7.12;100.00;99883.34;5060478;28;20555;-57
2023/04/12 04:52:24;;;;;;;;;;;;;;;7.12;100.00;99885.91;5055425;28;19912;-57
2023/04/12 04:54:49;;;;;;;;;;;;;;;7.09;100.00;99875.59;5054885;28;19928;-58
2023/04/12 04:57:14;;;;;;;;;;;;;;;7.14;100.00;99896.16;5052352;28;19921;-59
2023/04/12 04:59:40;;;;;;;;;;;;;;;7.15;100.00;99890.22;5054212;28;20418;-57
2023/04/12 05:02:05;;;;;;;;;;;;;;;7.15;100.00;99887.66;5056474;28;19917;-57
2023/04/12 05:04:30;;;;;;;;;;;;;;;7.16;100.00;99886.84;5057643;28;19924;-58
2023/04/12 05:06:55;;;;;;;;;;;;;;;7.19;100.00;99884.38;5055079;28;19916;-58
2023/04/12 05:09:21;;;;;;;;;;;;;;;7.22;100.00;99866.56;5054879;28;19924;-58
2023/04/12 05:11:46;;;;;;;;;;;;;;;7.22;100.00;99872.56;5053449;28;20051;-58
2023/04/12 05:14:11;;;;;;;;;;;;;;;7.18;100.00;99870.72;5055003;28;20700;-58
2023/04/12 05:16:36;;;;;;;;;;;;;;;7.26;100.00;99870.91;5045822;28;20062;-57
2023/04/12 05:19:02;;;;;;;;;;;;;;;7.24;100.00;99867.47;5050932;28;19964;-57
2023/04/12 05:21:28;;;;;;;;;;;;;;;7.27;100.00;99857.28;5058332;28;19920;-58
2023/04/12 05:23:53;;;;;;;;;;;;;;;7.30;100.00;99856.53;5055343;28;20006;-58
2023/04/12 05:26:18;;;;;;;;;;;;;;;7.26;100.00;99861.56;5051650;28;20038;-58
2023/04/12 05:28:44;;;;;;;;;;;;;;;7.26;100.00;99861.56;5052625;28;20006;-58
2023/04/12 05:31:09;;;;;;;;;;;;;;;7.25;100.00;99852.16;5054588;28;19917;-57
2023/04/12 05:33:35;;;;;;;;;;;;;;;7.31;100.00;99854.00;5056208;28;19956;-58
2023/04/12 05:36:00;;;;;;;;;;;;;;;7.31;100.00;99854.00;5051918;28;19954;-58
2023/04/12 05:38:26;;;;;;;;;;;;;;;7.32;100.00;99850.63;5052175;28;19916;-57
2023/04/12 05:40:52;;;;;;;;;;;;;;;7.32;100.00;99840.38;5051046;28;19913;-57
2023/04/12 05:43:17;;;;;;;;;;;;;;;7.33;100.00;99841.25;5053003;28;19955;-58
2023/04/12 05:45:42;;;;;;;;;;;;;;;7.36;100.00;99844.75;5055664;28;19920;-58
2023/04/12 05:48:08;;;;;;;;;;;;;;;7.36;100.00;99852.44;5051958;28;19952;-58
2023/04/12 05:50:33;;;;;;;;;;;;;;;7.38;100.00;99853.31;5052502;28;19913;-57
2023/04/12 05:53:01;;;;;;;;;;;;;;;7.41;100.00;99847.44;5042645;28;20323;-58
2023/04/12 05:55:27;;;;;;;;;;;;;;;7.40;100.00;99851.69;5053015;28;19916;-57
2023/04/12 05:57:53;;;;;;;;;;;;;;;7.41;100.00;99845.75;5054235;28;19993;-58
2023/04/12 06:00:18;;;;;;;;;;;;;;;7.41;100.00;99840.63;5057334;28;19931;-59
2023/04/12 06:02:44;;;;;;;;;;;;;;;7.47;100.00;99839.91;5057110;28;19936;-58
2023/04/12 06:05:10;;;;;;;;;;;;;;;7.46;100.00;99830.47;5055181;28;19912;-58
2023/04/12 06:07:36;;;;;;;;;;;;;;;7.46;100.00;99833.94;5052261;28;20379;-58
2023/04/12 06:10:01;;;;;;;;;;;;;;;7.49;100.00;99833.13;5053713;28;20283;-58
2023/04/12 06:12:26;;;;;;;;;;;;;;;7.47;100.00;99830.53;5052824;28;19955;-59
2023/04/12 06:14:52;;;;;;;;;;;;;;;7.49;100.00;99833.13;5057695;28;19920;-59
2023/04/12 06:17:17;;;;;;;;;;;;;;;7.50;100.00;99834.84;5057582;28;20019;-58
2023/04/12 06:19:42;;;;;;;;;;;;;;;7.51;100.00;99841.69;5057608;28;19975;-59
2023/04/12 06:22:07;;;;;;;;;;;;;;;7.49;100.00;99848.47;5051108;28;19947;-58
2023/04/12 06:24:33;;;;;;;;;;;;;;;7.52;100.00;99844.31;5058790;28;20441;-58
2023/04/12 06:26:58;;;;;;;;;;;;;;;7.53;100.00;99830.69;5054780;28;20379;-58
2023/04/12 06:29:23;;;;;;;;;;;;;;;7.56;100.00;99831.56;5053160;28;20000;-58
2023/04/12 06:31:48;;;;;;;;;;;;;;;7.56;100.00;99822.22;5053221;28;19956;-59
2023/04/12 06:34:14;;;;;;;;;;;;;;;7.59;100.00;99822.28;5052163;28;19963;-58
2023/04/12 06:36:40;;;;;;;;;;;;;;;7.61;100.00;99823.19;5055259;28;19928;-58
2023/04/12 06:39:06;;;;;;;;;;;;;;;7.61;100.00;99827.44;5052644;28;19952;-58
2023/04/12 06:41:31;;;;;;;;;;;;;;;7.62;100.00;99837.69;5057178;28;19920;-58
2023/04/12 06:43:56;;;;;;;;;;;;;;;7.60;100.00;99834.25;5054891;28;20406;-59
2023/04/12 06:46:25;;;;;;;;;;;;;;;7.62;100.00;99841.94;5037688;28;20410;-58
2023/04/12 06:48:51;;;;;;;;;;;;;;;7.62;100.00;99834.28;5053089;28;19955;-58
2023/04/12 06:51:16;;;;;;;;;;;;;;;7.63;100.00;99829.19;5052374;28;20395;-58
2023/04/12 06:53:41;;;;;;;;;;;;;;;7.67;100.00;99828.44;5036585;28;19920;-58
2023/04/12 06:56:07;;;;;;;;;;;;;;;7.70;100.00;99832.75;5057204;28;19966;-58
2023/04/12 06:58:32;;;;;;;;;;;;;;;7.72;100.00;99831.13;5050783;28;19952;-59
2023/04/12 07:01:08;;;;;;;;;;;;;;;7.75;100.00;99832.03;5052902;28;20046;-58
2023/04/12 07:03:34;;;;;;;;;;;;;;;7.78;100.00;99832.13;5052873;28;19978;-58
2023/04/12 07:06:01;;;;;;;;;;;;;;;7.82;100.00;99840.72;5050499;28;19986;-58
2023/04/12 07:08:27;;;;;;;;;;;;;;;7.85;100.00;99840.78;5054582;28;19924;-58
2023/04/12 07:10:53;;;;;;;;;;;;;;;7.87;100.00;99835.69;5052787;28;19928;-58
2023/04/12 07:13:18;;;;;;;;;;;;;;;7.90;100.00;99831.53;5050739;28;19955;-58
2023/04/12 07:15:43;;;;;;;;;;;;;;;7.93;100.00;99838.41;5051645;28;20015;-58
2023/04/12 07:18:08;;;;;;;;;;;;;;;7.97;100.00;99838.50;5053881;28;19925;-58
2023/04/12 07:20:34;;;;;;;;;;;;;;;8.01;100.00;99839.44;5058766;28;19940;-58
2023/04/12 07:22:59;;;;;;;;;;;;;;;8.02;100.00;99844.59;5057336;28;19935;-59
2023/04/12 07:25:24;;;;;;;;;;;;;;;8.05;100.00;99846.34;5052635;28;19913;-59
2023/04/12 07:27:49;;;;;;;;;;;;;;;8.10;100.00;99843.91;5054408;28;19916;-59
2023/04/12 07:30:15;;;;;;;;;;;;;;;8.14;100.00;99843.13;5050774;28;19920;-59
2023/04/12 07:32:40;;;;;;;;;;;;;;;8.18;100.00;99834.66;5054728;28;19916;-58
2023/04/12 07:35:06;;;;;;;;;;;;;;;8.20;100.00;99831.31;5052446;28;19925;-59
2023/04/12 07:37:31;;;;;;;;;;;;;;;8.26;100.00;99831.47;5037264;28;19988;-57
2023/04/12 07:39:56;;;;;;;;;;;;;;;8.33;100.00;99835.88;5054773;28;19944;-58
2023/04/12 07:42:22;;;;;;;;;;;;;;;8.40;100.00;99831.75;5051124;28;19980;-59
2023/04/12 07:44:47;;;;;;;;;;;;;;;8.46;100.00;99823.34;5050323;28;20353;-59
2023/04/12 07:47:12;;;;;;;;;;;;;;;8.51;100.00;99824.28;5054095;28;20000;-59
2023/04/12 07:49:37;;;;;;;;;;;;;;;8.57;100.00;99824.41;5053523;28;19917;-59
2023/04/12 07:52:03;;;;;;;;;;;;;;;8.57;100.00;99827.84;5061103;28;20008;-59
2023/04/12 07:54:28;;;;;;;;;;;;;;;8.59;100.00;99821.03;5039651;28;20015;-59
2023/04/12 07:57:01;;;;;;;;;;;;;;;8.61;100.00;99808.25;5035271;28;19912;-59
2023/04/12 07:59:27;;;;;;;;;;;;;;;8.63;100.00;99813.41;5051721;28;19928;-59
2023/04/12 08:01:52;;;;;;;;;;;;;;;8.67;100.00;99821.19;5050147;28;19921;-58
2023/04/12 08:04:17;;;;;;;;;;;;;;;8.71;100.00;99814.41;5031791;28;19920;-59
2023/04/12 08:06:42;;;;;;;;;;;;;;;8.75;100.00;99813.66;5056891;28;19921;-59
2023/04/12 08:09:08;;;;;;;;;;;;;;;8.72;100.00;99814.44;5054588;28;19921;-58
2023/04/12 08:11:34;;;;;;;;;;;;;;;8.74;100.00;99822.19;5058874;28;19987;-58
2023/04/12 08:13:59;;;;;;;;;;;;;;;8.70;100.00;99834.06;5065874;28;19924;-59
2023/04/12 08:16:25;;;;;;;;;;;;;;;8.65;100.00;99835.66;5068457;28;19916;-58
2023/04/12 08:18:51;;;;;;;;;;;;;;;8.61;100.00;99839.00;5065540;28;20062;-59
2023/04/12 08:21:16;;;;;;;;;;;;;;;8.56;100.00;99836.38;5040326;28;19999;-58
2023/04/12 08:23:41;;;;;;;;;;;;;;;8.56;100.00;99831.25;5059837;28;19925;-58
2023/04/12 08:26:07;;;;;;;;;;;;;;;8.52;100.00;99834.56;5064870;28;19912;-57
2023/04/12 08:28:33;;;;;;;;;;;;;;;8.46;100.00;99829.31;5059753;28;20457;-58
2023/04/12 08:30:58;;;;;;;;;;;;;;;8.49;100.00;99828.50;5062481;28;19939;-59
2023/04/12 08:33:23;;;;;;;;;;;;;;;8.56;100.00;99828.69;5057466;28;19908;-58
2023/04/12 08:35:49;;;;;;;;;;;;;;;8.60;100.00;99842.41;5057628;28;20286;-48
2023/04/12 08:38:14;;;;;;;;;;;;;;;8.65;100.00;99838.22;5058697;28;19932;-49
2023/04/12 08:40:41;;;;;;;;;;;;;;;8.69;100.00;99834.03;5058374;28;19919;-51
2023/04/12 08:43:07;;;;;;;;;;;;;;;8.74;100.00;99824.75;5057152;28;19955;-50
2023/04/12 08:45:34;;;;;;;;;;;;;;;8.83;100.00;99805.25;5060021;28;19912;-52
2023/04/12 08:48:02;;;;;;;;;;;;;;;8.97;100.00;99820.88;5062557;28;20000;-50
2023/04/12 08:50:28;;;;;;;;;;;;;;;9.11;100.00;99810.88;5064687;28;19944;-51
2023/04/12 08:52:54;;;;;;;;;;;;;;;9.25;100.00;99819.66;5060361;28;19951;-52
2023/04/12 08:55:19;;;;;;;;;;;;;;;9.42;100.00;99824.22;5060592;28;19917;-51
2023/04/12 08:57:44;;;;;;;;;;;;;;;9.60;100.00;99820.22;5060875;28;19916;-52
2023/04/12 09:00:11;;;;;;;;;;;;;;;9.75;100.00;99821.28;5062703;28;19939;-48
2023/04/12 09:02:37;;;;;;;;;;;;;;;9.83;100.00;99823.16;5056295;28;19917;-51
2023/04/12 09:05:03;;;;;;;;;;;;;;;9.92;100.00;99828.38;5060896;28;19991;-52
2023/04/12 09:07:29;;;;;;;;;;;;;;;10.06;100.00;99827.72;5056951;28;19909;-48
2023/04/12 09:09:55;;;;;;;;;;;;;;;10.16;100.00;99822.72;5057501;28;19923;-48
2023/04/12 09:12:23;;;;;;;;;;;;;;;10.33;100.00;99814.41;5061957;28;19920;-50
2023/04/12 09:15:03;;;;;;;;;;;;;;;10.55;100.00;99807.78;5055942;28;19916;-48
2023/04/12 09:17:28;;;;;;;;;;;;;;;10.79;100.00;99805.50;5050779;28;19996;-49
2023/04/12 09:19:55;;;;;;;;;;;;;;;11.01;100.00;99806.56;5060718;28;20055;-50
2023/04/12 09:22:31;;;;;;;;;;;;;;;11.16;100.00;99804.16;5060253;28;20413;-52
2023/04/12 09:24:57;;;;;;;;;;;;;;;11.27;100.00;99792.22;5056984;28;19920;-52
2023/04/12 09:27:22;;;;;;;;;;;;;;;11.47;100.00;99799.25;5056176;28;19924;-50
2023/04/12 09:29:50;;;;;;;;;;;;;;;11.66;100.00;99798.53;5058015;28;19919;-48
2023/04/12 09:32:26;;;;;;;;;;;;;;;11.77;100.00;99801.19;5054798;28;19913;-49
2023/04/12 09:34:56;;;;;;;;;;;;;;;11.72;100.00;99801.13;5039486;28;20291;-51
2023/04/12 09:37:21;;;;;;;;;;;;;;;11.63;100.00;99805.34;5062543;28;19912;-49
2023/04/12 09:39:47;;;;;;;;;;;;;;;11.53;100.00;99795.00;5057707;28;19991;-50
2023/04/12 09:42:14;;;;;;;;;;;;;;;11.39;100.00;99801.75;5057279;28;19952;-48
2023/04/12 09:44:39;;;;;;;;;;;;;;;11.36;100.00;99799.16;5058701;28;20405;-51
2023/04/12 09:47:05;;;;;;;;;;;;;;;11.38;100.00;99794.88;5065027;28;19955;-52
2023/04/12 09:49:40;;;;;;;;;;;;;;;11.43;100.00;99793.19;5061304;28;19995;-51
2023/04/12 09:52:12;;;;;;;;;;;;;;;11.49;100.00;99792.38;5063870;28;19908;-49
2023/04/12 09:54:37;;;;;;;;;;;;;;;11.53;100.00;99791.56;5053684;28;19927;-51
2023/04/12 09:57:05;;;;;;;;;;;;;;;11.49;100.00;99777.81;5036022;28;20294;-53
2023/04/12 09:59:34;;;;;;;;;;;;;;;11.51;100.00;99773.53;5048478;28;19920;-52
2023/04/12 10:02:00;;;;;;;;;;;;;;;11.51;97.64;99775.22;5054967;28;19920;-55
2023/04/12 10:04:26;;;;;;;;;;;;;;;11.34;97.57;99777.69;5059314;28;19924;-57
2023/04/12 10:06:51;;;;;;;;;;;;;;;11.23;97.67;99782.75;5054076;28;19916;-56
2023/04/12 10:09:17;;;;;;;;;;;;;;;11.12;99.13;99786.97;5054574;28;20346;-56
2023/04/12 10:11:43;;;;;;;;;;;;;;;11.05;100.00;99786.91;5052970;28;19916;-56
2023/04/12 10:14:09;;;;;;;;;;;;;;;10.88;95.64;99779.88;5055504;28;20284;-57
2023/04/12 10:16:35;;;;;;;;;;;;;;;10.71;94.70;99786.56;5053663;28;19916;-56
2023/04/12 10:19:01;;;;;;;;;;;;;;;10.64;95.69;99783.06;5055500;28;21625;-57
2023/04/12 10:21:26;;;;;;;;;;;;;;;10.70;96.19;99783.13;5053274;28;19916;-56
2023/04/12 10:23:52;;;;;;;;;;;;;;;10.87;96.66;99792.72;5056580;28;20382;-55
2023/04/12 10:26:17;;;;;;;;;;;;;;;11.03;98.38;99784.28;5056222;28;20260;-57
2023/04/12 10:28:46;;;;;;;;;;;;;;;11.26;94.26;99775.06;5056122;28;19916;-56
2023/04/12 10:31:31;;;;;;;;;;;;;;;11.44;95.85;99774.34;5049697;28;20019;-55
2023/04/12 10:34:00;;;;;;;;;;;;;;;11.60;89.96;99780.47;5053916;28;20267;-55
2023/04/12 10:36:44;;;;;;;;;;;;;;;11.67;94.21;99777.06;5051381;28;19912;-57
2023/04/12 10:39:09;;;;;;;;;;;;;;;11.88;94.86;99781.50;5054441;28;20007;-56
2023/04/12 10:41:35;;;;;;;;;;;;;;;12.01;88.42;99787.56;5040440;28;20003;-56
2023/04/12 10:44:20;;;;;;;;;;;;;;;11.96;89.54;99787.56;5054238;28;19935;-55
2023/04/12 10:46:47;;;;;;;;;;;;;;;12.02;84.37;99792.75;5035394;28;20543;-55
2023/04/12 10:49:13;;;;;;;;;;;;;;;12.05;83.60;99797.91;5054429;28;20460;-54
2023/04/12 10:51:38;;;;;;;;;;;;;;;12.00;85.00;99794.44;5041482;28;19936;-59
2023/04/12 10:54:06;;;;;;;;;;;;;;;11.98;86.50;99800.47;5053424;28;19927;-53
2023/04/12 10:56:36;;;;;;;;;;;;;;;11.92;79.78;99797.84;5054715;28;19944;-54
2023/04/12 10:59:05;;;;;;;;;;;;;;;11.68;82.65;99801.09;5057967;28;19958;-53
2023/04/12 11:01:31;;;;;;;;;;;;;;;11.50;80.93;99807.84;5054321;28;19912;-52
2023/04/12 11:04:05;;;;;;;;;;;;;;;11.36;80.64;99806.88;5052303;28;19920;-49
2023/04/12 11:06:49;;;;;;;;;;;;;;;11.27;84.06;99794.78;5055171;28;19916;-49
2023/04/12 11:09:27;;;;;;;;;;;;;;;11.15;83.79;99807.56;5051287;28;20350;-50
2023/04/12 11:12:04;;;;;;;;;;;;;;;11.18;83.94;99799.88;5051077;28;19962;-48
2023/04/12 11:14:50;;;;;;;;;;;;;;;11.26;81.24;99808.50;5050569;28;20003;-51
2023/04/12 11:17:15;;;;;;;;;;;;;;;11.26;84.02;99811.09;5054522;28;19916;-54
2023/04/12 11:19:45;;;;;;;;;;;;;;;11.22;82.77;99816.19;5054364;28;20004;-53
2023/04/12 11:22:11;;;;;;;;;;;;;;;11.10;82.55;99813.50;5054251;28;20430;-53
2023/04/12 11:24:37;;;;;;;;;;;;;;;11.02;84.61;99813.44;5060564;28;19959;-53
2023/04/12 11:27:03;;;;;;;;;;;;;;;10.93;85.62;99816.78;5052867;28;19917;-53
2023/04/12 11:29:28;;;;;;;;;;;;;;;10.82;87.10;99826.09;5059723;28;20291;-54
2023/04/12 11:31:54;;;;;;;;;;;;;;;10.73;85.94;99821.72;5052056;28;19920;-54
2023/04/12 11:34:20;;;;;;;;;;;;;;;10.71;87.79;99812.28;5060672;28;20002;-54
2023/04/12 11:36:46;;;;;;;;;;;;;;;10.73;88.47;99813.13;5055081;28;20018;-53
2023/04/12 11:39:11;;;;;;;;;;;;;;;10.87;87.21;99815.88;5053190;28;19917;-54
2023/04/12 11:41:42;;;;;;;;;;;;;;;11.03;87.81;99815.16;5052560;28;19920;-54
2023/04/12 11:44:08;;;;;;;;;;;;;;;11.22;88.31;99809.34;5052512;28;19939;-54
2023/04/12 11:46:34;;;;;;;;;;;;;;;11.40;88.48;99800.03;5054971;28;19920;-52
2023/04/12 11:48:59;;;;;;;;;;;;;;;11.56;87.75;99799.31;5049801;28;19964;-52
2023/04/12 11:51:27;;;;;;;;;;;;;;;11.77;85.73;99803.75;5051801;28;19959;-54
2023/04/12 11:53:53;;;;;;;;;;;;;;;12.02;77.32;99815.94;5053557;28;19917;-53
2023/04/12 11:56:18;;;;;;;;;;;;;;;12.13;82.38;99802.22;5051028;28;20024;-55
2023/04/12 11:58:45;;;;;;;;;;;;;;;12.15;72.05;99798.84;5054937;28;19996;-53
2023/04/12 12:01:11;;;;;;;;;;;;;;;12.18;72.54;99801.41;5052903;28;19944;-53
2023/04/12 12:03:37;;;;;;;;;;;;;;;12.21;73.56;99806.59;5051669;28;19916;-53
2023/04/12 12:06:02;;;;;;;;;;;;;;;12.26;65.76;99810.06;5053537;28;19948;-54
2023/04/12 12:08:28;;;;;;;;;;;;;;;12.34;70.04;99810.06;5051095;28;19996;-54
2023/04/12 12:10:53;;;;;;;;;;;;;;;12.39;65.24;99813.53;5050664;28;20299;-53
2023/04/12 12:13:18;;;;;;;;;;;;;;;12.42;67.49;99812.69;5051464;28;19916;-53
2023/04/12 12:15:44;;;;;;;;;;;;;;;12.39;65.67;99816.13;5060320;28;19917;-54
2023/04/12 12:18:10;;;;;;;;;;;;;;;12.32;65.50;99824.69;5040733;28;20295;-54
2023/04/12 12:20:54;;;;;;;;;;;;;;;12.23;63.78;99828.06;5052126;28;19925;-54
2023/04/12 12:23:29;;;;;;;;;;;;;;;11.97;62.74;99842.53;5052739;28;19928;-52
2023/04/12 12:25:58;;;;;;;;;;;;;;;11.76;65.26;99843.22;5056635;28;20015;-47
2023/04/12 12:28:24;;;;;;;;;;;;;;;11.58;59.52;99848.22;5048895;28;19917;-47
2023/04/12 12:30:52;;;;;;;;;;;;;;;11.44;61.32;99853.28;5049413;28;20290;-48
2023/04/12 12:33:20;;;;;;;;;;;;;;;11.34;65.77;99851.47;5053457;28;20369;-48
2023/04/12 12:35:46;;;;;;;;;;;;;;;11.23;64.85;99859.97;5049253;28;20439;-49
2023/04/12 12:38:11;;;;;;;;;;;;;;;11.11;62.62;99865.00;5053523;28;20358;-49
2023/04/12 12:40:37;;;;;;;;;;;;;;;10.92;65.23;99863.94;5056664;28;19916;-47